createdAt,value
2023-04-10T00:00:55.948Z,22.70
2023-04-10T00:02:16.896Z,21.70
2023-04-10T00:03:37.516Z,23.70
2023-04-10T00:04:58.181Z,21.85
2023-04-10T00:06:20.105Z,20.73
2023-04-10T00:07:40.815Z,23.00
2023-04-10T00:09:01.198Z,21.52
2023-04-10T00:10:22.001Z,25.80
2023-04-10T00:11:42.829Z,22.80
2023-04-10T00:13:03.582Z,20.80
2023-04-10T00:14:24.267Z,23.00
2023-04-10T00:15:44.753Z,21.70
2023-04-10T00:17:05.471Z,21.80
2023-04-10T00:18:26.144Z,20.40
2023-04-10T00:19:46.864Z,24.17
2023-04-10T00:21:07.567Z,22.08
2023-04-10T00:22:29.394Z,19.83
2023-04-10T00:23:50.027Z,22.23
2023-04-10T00:25:10.694Z,23.90
2023-04-10T00:26:31.287Z,20.00
2023-04-10T00:27:52.090Z,25.85
2023-04-10T00:29:12.822Z,28.73
2023-04-10T00:30:33.298Z,20.85
2023-04-10T00:31:53.977Z,20.50
2023-04-10T00:33:14.808Z,21.02
2023-04-10T00:34:35.373Z,19.00
2023-04-10T00:35:56.151Z,20.83
2023-04-10T00:37:18.204Z,22.55
2023-04-10T00:38:40.742Z,25.10
2023-04-10T00:40:01.763Z,21.45
2023-04-10T00:41:26.268Z,18.35
2023-04-10T00:42:50.109Z,22.95
2023-04-10T00:44:14.304Z,20.33
2023-04-10T00:45:34.961Z,21.80
2023-04-10T00:46:56.009Z,20.67
2023-04-10T00:48:17.040Z,23.15
2023-04-10T00:49:37.976Z,21.38
2023-04-10T00:50:58.526Z,21.55
2023-04-10T00:52:19.626Z,20.63
2023-04-10T00:53:42.073Z,21.95
2023-04-10T00:55:03.171Z,20.92
2023-04-10T00:56:24.390Z,20.10
2023-04-10T00:57:46.124Z,21.45
2023-04-10T00:59:07.347Z,19.85
2023-04-10T01:00:28.073Z,21.67
2023-04-10T01:01:48.845Z,22.70
2023-04-10T01:03:10.069Z,20.70
2023-04-10T01:04:31.201Z,21.80
2023-04-10T01:05:57.083Z,21.00
2023-04-10T01:07:35.519Z,20.85
2023-04-10T01:09:12.424Z,20.80
2023-04-10T01:10:36.869Z,19.20
2023-04-10T01:12:02.705Z,19.65
2023-04-10T01:13:28.161Z,18.15
2023-04-10T01:14:53.520Z,21.63
2023-04-10T01:16:18.974Z,20.25
2023-04-10T01:17:44.147Z,18.40
2023-04-10T01:19:10.688Z,19.02
2023-04-10T01:20:33.475Z,18.10
2023-04-10T01:21:55.259Z,18.23
2023-04-10T01:23:31.717Z,20.60
2023-04-10T01:25:05.342Z,20.38
2023-04-10T01:26:37.201Z,20.00
2023-04-10T01:28:11.899Z,21.33
2023-04-10T01:29:34.564Z,18.23
2023-04-10T01:30:58.160Z,22.17
2023-04-10T01:32:21.668Z,18.27
2023-04-10T01:33:46.596Z,22.13
2023-04-10T01:35:08.991Z,19.35
2023-04-10T01:36:36.317Z,21.30
2023-04-10T01:37:57.503Z,19.85
2023-04-10T01:39:19.775Z,21.88
2023-04-10T01:40:41.663Z,20.70
2023-04-10T01:42:03.286Z,20.55
2023-04-10T01:43:26.421Z,19.52
2023-04-10T01:44:49.340Z,19.95
2023-04-10T01:46:10.546Z,20.35
2023-04-10T01:47:31.721Z,19.35
2023-04-10T01:48:53.721Z,22.15
2023-04-10T01:50:15.069Z,19.13
2023-04-10T01:51:36.040Z,17.42
2023-04-10T01:52:57.300Z,21.65
2023-04-10T01:54:18.012Z,22.35
2023-04-10T01:55:39.555Z,20.30
2023-04-10T01:57:00.372Z,19.70
2023-04-10T01:58:21.103Z,21.40
2023-04-10T01:59:42.082Z,22.58
2023-04-10T02:01:04.221Z,20.40
2023-04-10T02:02:24.989Z,21.15
2023-04-10T02:03:45.879Z,21.40
2023-04-10T02:05:07.003Z,22.92
2023-04-10T02:06:33.051Z,22.05
2023-04-10T02:08:00.464Z,22.23
2023-04-10T02:09:25.740Z,20.10
2023-04-10T02:10:51.848Z,22.00
2023-04-10T02:12:16.746Z,25.20
2023-04-10T02:13:39.339Z,24.10
2023-04-10T02:15:01.664Z,21.80
2023-04-10T02:16:24.045Z,23.30
2023-04-10T02:17:45.518Z,23.45
2023-04-10T02:19:07.890Z,25.02
2023-04-10T02:20:28.542Z,22.52
2023-04-10T02:21:49.834Z,26.95
2023-04-10T02:23:10.945Z,24.30
2023-04-10T02:24:32.456Z,22.80
2023-04-10T02:27:13.386Z,27.55
2023-04-10T02:28:34.266Z,23.60
2023-04-10T02:29:55.295Z,24.85
2023-04-10T02:31:16.506Z,24.15
2023-04-10T02:32:38.401Z,24.40
2023-04-10T02:33:58.919Z,24.60
2023-04-10T02:35:19.747Z,24.70
2023-04-10T02:36:40.782Z,26.17
2023-04-10T02:38:01.642Z,25.23
2023-04-10T02:39:22.594Z,21.85
2023-04-10T02:40:43.541Z,22.70
2023-04-10T02:42:04.375Z,26.70
2023-04-10T02:43:25.168Z,24.52
2023-04-10T02:44:47.004Z,23.85
2023-04-10T02:46:07.829Z,23.23
2023-04-10T02:47:29.388Z,23.10
2023-04-10T02:48:52.546Z,27.73
2023-04-10T02:50:13.745Z,25.08
2023-04-10T02:51:35.533Z,22.83
2023-04-10T02:52:56.867Z,22.30
2023-04-10T02:54:17.563Z,22.13
2023-04-10T02:55:38.535Z,22.70
2023-04-10T02:57:00.011Z,24.67
2023-04-10T02:58:20.718Z,21.90
2023-04-10T02:59:41.501Z,27.30
2023-04-10T03:01:02.096Z,20.83
2023-04-10T03:02:23.136Z,25.17
2023-04-10T03:03:44.354Z,21.92
2023-04-10T03:05:06.976Z,21.08
2023-04-10T03:06:27.675Z,24.05
2023-04-10T03:07:48.977Z,21.80
2023-04-10T03:09:09.718Z,23.08
2023-04-10T03:10:30.410Z,21.63
2023-04-10T03:11:51.074Z,22.20
2023-04-10T03:13:11.917Z,21.05
2023-04-10T03:14:32.544Z,22.80
2023-04-10T03:15:53.298Z,20.33
2023-04-10T03:17:13.917Z,19.00
2023-04-10T03:18:34.830Z,22.08
2023-04-10T03:19:55.448Z,22.23
2023-04-10T03:21:18.570Z,24.98
2023-04-10T03:22:39.008Z,21.23
2023-04-10T03:23:59.424Z,18.77
2023-04-10T03:25:19.920Z,20.20
2023-04-10T03:26:40.753Z,18.60
2023-04-10T03:28:01.550Z,22.52
2023-04-10T03:29:22.346Z,18.52
2023-04-10T03:30:42.836Z,19.88
2023-04-10T03:32:03.713Z,18.87
2023-04-10T03:33:24.111Z,20.63
2023-04-10T03:34:44.713Z,20.52
2023-04-10T03:36:06.119Z,19.63
2023-04-10T03:37:28.091Z,17.52
2023-04-10T03:38:48.758Z,19.40
2023-04-10T03:40:10.213Z,19.58
2023-04-10T03:42:51.344Z,19.75
2023-04-10T03:44:12.060Z,18.13
2023-04-10T03:45:32.605Z,18.77
2023-04-10T03:46:53.343Z,19.52
2023-04-10T03:48:13.803Z,16.83
2023-04-10T03:49:34.546Z,17.73
2023-04-10T03:50:55.379Z,18.20
2023-04-10T03:52:16.404Z,17.65
2023-04-10T03:53:38.555Z,17.23
2023-04-10T03:54:58.954Z,17.67
2023-04-10T03:56:19.905Z,19.10
2023-04-10T03:57:40.471Z,17.27
2023-04-10T03:59:01.229Z,15.40
2023-04-10T04:00:22.176Z,19.67
2023-04-10T04:01:42.713Z,16.07
2023-04-10T04:03:03.767Z,18.40
2023-04-10T04:05:45.462Z,15.68
2023-04-10T04:07:06.827Z,15.70
2023-04-10T04:08:27.451Z,13.65
2023-04-10T04:09:49.719Z,15.77
2023-04-10T04:11:10.250Z,16.33
2023-04-10T04:12:31.137Z,14.68
2023-04-10T04:13:52.064Z,15.65
2023-04-10T04:15:13.033Z,15.68
2023-04-10T04:16:34.047Z,15.25
2023-04-10T04:17:55.288Z,15.30
2023-04-10T04:19:16.126Z,18.52
2023-04-10T04:20:36.985Z,15.65
2023-04-10T04:21:57.832Z,15.57
2023-04-10T04:23:18.453Z,15.13
2023-04-10T04:24:39.169Z,15.73
2023-04-10T04:26:00.968Z,15.73
2023-04-10T04:27:21.766Z,14.13
2023-04-10T04:28:42.662Z,14.55
2023-04-10T04:30:03.468Z,14.40
2023-04-10T04:31:23.929Z,17.20
2023-04-10T04:32:44.780Z,14.00
2023-04-10T04:34:05.416Z,13.43
2023-04-10T04:35:26.279Z,14.05
2023-04-10T04:36:47.098Z,14.93
2023-04-10T04:38:07.737Z,13.85
2023-04-10T04:39:28.579Z,13.95
2023-04-10T04:40:49.378Z,17.02
2023-04-10T04:42:11.376Z,15.02
2023-04-10T04:43:32.698Z,14.52
2023-04-10T04:46:14.572Z,16.40
2023-04-10T04:47:35.627Z,15.95
2023-04-10T04:48:56.184Z,16.02
2023-04-10T04:50:17.243Z,13.80
2023-04-10T04:51:38.305Z,15.50
2023-04-10T04:52:59.229Z,14.27
2023-04-10T04:54:20.080Z,12.35
2023-04-10T04:55:41.502Z,14.52
2023-04-10T04:57:02.296Z,14.15
2023-04-10T04:58:24.563Z,14.75
2023-04-10T04:59:45.038Z,16.40
2023-04-10T05:01:06.626Z,16.40
2023-04-10T05:02:27.124Z,16.10
2023-04-10T05:03:47.782Z,14.25
2023-04-10T05:05:09.071Z,13.93
2023-04-10T05:06:30.015Z,14.20
2023-04-10T05:07:50.594Z,14.30
2023-04-10T05:09:11.381Z,16.42
2023-04-10T05:10:31.994Z,12.52
2023-04-10T05:11:52.834Z,13.45
2023-04-10T05:13:13.490Z,13.57
2023-04-10T05:14:35.741Z,14.77
2023-04-10T05:15:56.393Z,13.65
2023-04-10T05:17:17.061Z,15.77
2023-04-10T05:18:38.184Z,14.68
2023-04-10T05:19:58.861Z,15.50
2023-04-10T05:21:19.572Z,14.52
2023-04-10T05:22:40.084Z,14.77
2023-04-10T05:24:00.811Z,16.48
2023-04-10T05:25:21.351Z,13.55
2023-04-10T05:26:42.068Z,15.75
2023-04-10T05:28:03.862Z,17.85
2023-04-10T05:30:46.268Z,18.15
2023-04-10T05:32:06.768Z,12.93
2023-04-10T05:33:27.383Z,18.07
2023-04-10T05:34:48.177Z,14.75
2023-04-10T05:36:10.490Z,14.05
2023-04-10T05:37:31.080Z,12.43
2023-04-10T05:38:51.758Z,13.25
2023-04-10T05:40:12.632Z,14.10
2023-04-10T05:41:33.172Z,15.05
2023-04-10T05:42:53.975Z,14.52
2023-04-10T05:44:14.588Z,15.00
2023-04-10T05:45:35.250Z,14.10
2023-04-10T05:46:57.024Z,14.85
2023-04-10T05:48:17.660Z,13.77
2023-04-10T05:49:38.503Z,12.80
2023-04-10T05:50:59.218Z,13.35
2023-04-10T05:52:19.934Z,13.73
2023-04-10T05:53:40.536Z,13.93
2023-04-10T05:55:01.202Z,14.68
2023-04-10T05:56:21.605Z,12.27
2023-04-10T05:57:42.347Z,14.20
2023-04-10T05:59:03.094Z,15.07
2023-04-10T06:00:23.953Z,13.85
2023-04-10T06:01:44.866Z,13.35
2023-04-10T06:03:07.044Z,12.20
2023-04-10T06:04:27.636Z,13.15
2023-04-10T06:05:48.800Z,16.60
2023-04-10T06:07:09.657Z,14.80
2023-04-10T06:08:30.371Z,13.77
2023-04-10T06:09:51.141Z,14.65
2023-04-10T06:11:12.061Z,13.85
2023-04-10T06:12:32.566Z,12.18
2023-04-10T06:13:53.246Z,13.13
2023-04-10T06:15:13.902Z,13.47
2023-04-10T06:16:34.633Z,13.48
2023-04-10T06:17:55.652Z,13.45
2023-04-10T06:19:17.426Z,12.75
2023-04-10T06:20:38.573Z,16.55
2023-04-10T06:21:59.079Z,14.68
2023-04-10T06:23:19.817Z,14.27
2023-04-10T06:24:40.332Z,13.05
2023-04-10T06:26:01.288Z,15.95
2023-04-10T06:27:21.725Z,13.03
2023-04-10T06:28:42.395Z,12.73
2023-04-10T06:30:03.348Z,13.35
2023-04-10T06:31:24.685Z,15.48
2023-04-10T06:32:45.101Z,14.80
2023-04-10T06:34:05.631Z,14.27
2023-04-10T06:35:27.877Z,12.57
2023-04-10T06:36:48.464Z,13.38
2023-04-10T06:38:09.196Z,19.10
2023-04-10T06:39:29.813Z,12.10
2023-04-10T06:40:50.397Z,13.35
2023-04-10T06:42:11.264Z,13.60
2023-04-10T06:43:33.803Z,12.90
2023-04-10T06:44:54.592Z,14.82
2023-04-10T06:46:15.177Z,12.50
2023-04-10T06:47:35.882Z,14.20
2023-04-10T06:48:56.604Z,12.55
2023-04-10T06:50:17.142Z,12.98
2023-04-10T06:51:39.274Z,15.90
2023-04-10T06:53:00.125Z,17.17
2023-04-10T06:54:20.752Z,11.85
2023-04-10T06:55:41.290Z,14.57
2023-04-10T06:57:02.178Z,13.05
2023-04-10T06:58:23.009Z,13.15
2023-04-10T06:59:43.811Z,16.50
2023-04-10T07:01:06.023Z,17.15
2023-04-10T07:02:26.825Z,13.02
2023-04-10T07:03:47.293Z,13.17
2023-04-10T07:05:09.037Z,14.05
2023-04-10T07:06:29.860Z,13.68
2023-04-10T07:07:51.932Z,12.43
2023-04-10T07:09:12.264Z,13.82
2023-04-10T07:10:33.065Z,12.85
2023-04-10T07:11:53.928Z,13.20
2023-04-10T07:13:14.491Z,16.77
2023-04-10T07:14:35.245Z,13.95
2023-04-10T07:15:56.125Z,12.80
2023-04-10T07:17:16.876Z,14.73
2023-04-10T07:18:37.640Z,13.88
2023-04-10T07:19:58.561Z,13.25
2023-04-10T07:21:19.089Z,13.05
2023-04-10T07:22:39.767Z,16.53
2023-04-10T07:24:01.845Z,12.82
2023-04-10T07:25:22.772Z,12.57
2023-04-10T07:26:43.579Z,15.95
2023-04-10T07:28:04.766Z,18.73
2023-04-10T07:29:25.195Z,13.63
2023-04-10T07:30:46.201Z,13.60
2023-04-10T07:32:06.800Z,14.85
2023-04-10T07:33:27.383Z,13.27
2023-04-10T07:34:48.142Z,14.75
2023-04-10T07:36:09.269Z,12.75
2023-04-10T07:37:29.692Z,14.05
2023-04-10T07:38:50.164Z,13.55
2023-04-10T07:40:12.645Z,15.02
2023-04-10T07:41:33.347Z,14.10
2023-04-10T07:42:54.230Z,12.77
2023-04-10T07:44:15.120Z,16.42
2023-04-10T07:45:35.943Z,16.42
2023-04-10T07:46:56.760Z,13.50
2023-04-10T07:48:17.237Z,14.90
2023-04-10T07:49:37.843Z,14.68
2023-04-10T07:50:58.676Z,13.38
2023-04-10T07:52:19.411Z,14.40
2023-04-10T07:53:40.258Z,14.37
2023-04-10T07:55:01.999Z,18.02
2023-04-10T07:56:24.017Z,14.23
2023-04-10T07:57:44.963Z,14.00
2023-04-10T07:59:05.983Z,15.57
2023-04-10T08:00:26.725Z,14.13
2023-04-10T08:01:47.465Z,13.23
2023-04-10T08:03:08.008Z,14.25
2023-04-10T08:04:28.720Z,14.88
2023-04-10T08:05:49.597Z,15.13
2023-04-10T08:07:09.982Z,19.80
2023-04-10T08:08:30.638Z,15.65
2023-04-10T08:09:51.210Z,13.85
2023-04-10T08:11:25.571Z,15.93
2023-04-10T08:12:46.191Z,16.05
2023-04-10T08:14:07.107Z,15.93
2023-04-10T08:15:27.706Z,13.75
2023-04-10T08:16:48.444Z,18.30
2023-04-10T08:18:09.257Z,17.23
2023-04-10T08:19:29.725Z,16.80
2023-04-10T08:20:50.358Z,14.98
2023-04-10T08:22:11.142Z,12.35
2023-04-10T08:23:31.732Z,15.38
2023-04-10T08:24:52.206Z,17.63
2023-04-10T08:26:13.124Z,15.05
2023-04-10T08:27:35.038Z,13.88
2023-04-10T08:28:57.406Z,13.60
2023-04-10T08:30:17.892Z,14.27
2023-04-10T08:31:38.456Z,13.50
2023-04-10T08:32:58.907Z,15.60
2023-04-10T08:34:19.403Z,14.68
2023-04-10T08:35:39.860Z,12.65
2023-04-10T08:37:01.431Z,14.55
2023-04-10T08:38:22.231Z,16.05
2023-04-10T08:39:43.116Z,13.57
2023-04-10T08:41:03.731Z,15.60
2023-04-10T08:42:24.573Z,14.60
2023-04-10T08:43:46.678Z,17.00
2023-04-10T08:45:08.817Z,16.77
2023-04-10T08:46:29.719Z,14.98
2023-04-10T08:47:51.244Z,14.88
2023-04-10T08:49:17.949Z,14.48
2023-04-10T08:50:42.325Z,14.35
2023-04-10T08:52:04.389Z,15.07
2023-04-10T08:53:25.070Z,13.60
2023-04-10T08:54:48.567Z,14.18
2023-04-10T08:56:12.406Z,14.77
2023-04-10T08:57:33.234Z,13.27
2023-04-10T09:01:56.860Z,14.93
2023-04-10T09:03:18.577Z,13.98
2023-04-10T09:04:39.227Z,13.23
2023-04-10T09:06:02.606Z,13.38
2023-04-10T09:07:23.246Z,14.98
2023-04-10T09:08:43.969Z,15.88
2023-04-10T09:10:05.409Z,16.77
2023-04-10T09:11:56.417Z,14.43
2023-04-10T09:13:35.623Z,18.13
2023-04-10T09:14:58.083Z,17.75
2023-04-10T09:16:18.672Z,19.83
2023-04-10T09:17:39.553Z,24.58
2023-04-10T09:19:00.114Z,23.92
2023-04-10T09:20:21.815Z,28.30
2023-04-10T09:21:50.409Z,30.45
2023-04-10T09:23:20.409Z,36.33
2023-04-10T09:24:43.093Z,32.50
2023-04-10T09:26:12.018Z,31.90
2023-04-10T09:27:33.579Z,29.63
2023-04-10T09:29:01.566Z,30.85
2023-04-10T09:30:37.165Z,29.10
2023-04-10T09:31:57.593Z,21.88
2023-04-10T09:33:23.183Z,21.08
2023-04-10T09:34:53.108Z,21.45
2023-04-10T09:36:14.049Z,19.17
2023-04-10T09:37:35.654Z,24.75
2023-04-10T09:38:56.341Z,29.15
2023-04-10T09:40:20.973Z,35.80
2023-04-10T09:41:48.639Z,39.15
2023-04-10T09:43:21.280Z,43.78
2023-04-10T09:44:42.417Z,43.38
2023-04-10T09:46:04.656Z,55.42
2023-04-10T09:47:25.222Z,59.10
2023-04-10T09:48:54.984Z,60.72
2023-04-10T09:50:15.719Z,76.75
2023-04-10T09:51:36.334Z,78.28
2023-04-10T09:52:57.864Z,78.35
2023-04-10T09:54:18.084Z,81.28
2023-04-10T09:55:39.303Z,83.32
2023-04-10T09:56:59.896Z,88.25
2023-04-10T09:58:20.574Z,83.57
2023-04-10T09:59:42.988Z,86.28
2023-04-10T10:01:07.153Z,87.20
2023-04-10T10:02:30.071Z,87.72
2023-04-10T10:03:51.097Z,95.63
2023-04-10T10:05:11.967Z,95.15
2023-04-10T10:06:33.343Z,94.70
2023-04-10T10:07:53.965Z,92.78
2023-04-10T10:09:15.752Z,104.75
2023-04-10T10:10:38.796Z,102.15
2023-04-10T10:12:00.431Z,93.00
2023-04-10T10:13:24.533Z,89.78
2023-04-10T10:14:51.538Z,89.20
2023-04-10T10:16:19.318Z,83.85
2023-04-10T10:17:50.446Z,90.07
2023-04-10T10:19:15.641Z,88.45
2023-04-10T10:20:37.155Z,96.68
2023-04-10T10:21:59.950Z,77.13
2023-04-10T10:23:20.282Z,72.75
2023-04-10T10:24:46.398Z,81.15
2023-04-10T10:26:07.088Z,62.22
2023-04-10T10:27:29.067Z,66.80
2023-04-10T10:28:51.352Z,59.80
2023-04-10T10:30:28.366Z,59.60
2023-04-10T10:31:52.608Z,55.25
2023-04-10T10:33:14.417Z,49.08
2023-04-10T10:34:35.475Z,51.83
2023-04-10T10:35:58.598Z,45.72
2023-04-10T10:37:19.719Z,46.78
2023-04-10T10:38:44.489Z,45.08
2023-04-10T10:40:12.730Z,49.50
2023-04-10T10:41:38.018Z,39.75
2023-04-10T10:43:06.140Z,44.38
2023-04-10T10:44:33.875Z,43.45
2023-04-10T10:45:57.748Z,33.85
2023-04-10T10:47:23.001Z,41.67
2023-04-10T10:48:56.169Z,38.60
2023-04-10T10:50:17.106Z,33.47
2023-04-10T10:51:44.687Z,32.70
2023-04-10T10:53:05.792Z,33.90
2023-04-10T10:54:31.038Z,36.17
2023-04-10T10:55:53.140Z,33.97
2023-04-10T10:57:48.282Z,32.88
2023-04-10T10:59:08.581Z,31.15
2023-04-10T11:01:02.630Z,34.47
2023-04-10T11:02:24.865Z,31.75
2023-04-10T11:03:45.645Z,30.88
2023-04-10T11:05:07.128Z,25.50
2023-04-10T11:06:48.738Z,24.40
2023-04-10T11:08:09.239Z,24.95
2023-04-10T11:09:46.465Z,25.77
2023-04-10T11:11:08.708Z,21.25
2023-04-10T11:12:29.914Z,17.95
2023-04-10T11:14:12.810Z,21.13
2023-04-10T11:15:33.798Z,25.30
2023-04-10T11:16:54.212Z,18.85
2023-04-10T11:18:16.706Z,20.08
2023-04-10T11:19:59.806Z,26.13
2023-04-10T11:21:21.909Z,21.13
2023-04-10T11:23:09.918Z,29.30
2023-04-10T11:24:45.886Z,21.48
2023-04-10T11:26:06.990Z,26.17
2023-04-10T11:27:47.152Z,25.67
2023-04-10T11:29:33.503Z,26.33
2023-04-10T11:30:54.084Z,32.55
2023-04-10T11:32:15.019Z,34.50
2023-04-10T11:33:37.134Z,29.77
2023-04-10T11:34:58.003Z,21.52
2023-04-10T11:36:18.744Z,19.30
2023-04-10T11:37:39.249Z,18.80
2023-04-10T11:39:00.976Z,17.27
2023-04-10T11:40:22.146Z,16.35
2023-04-10T11:41:44.835Z,17.63
2023-04-10T11:43:14.588Z,19.25
2023-04-10T11:44:35.567Z,16.63
2023-04-10T11:46:00.910Z,13.27
2023-04-10T11:47:21.874Z,12.52
2023-04-10T11:48:44.061Z,12.43
2023-04-10T11:50:08.044Z,12.77
2023-04-10T11:51:28.748Z,15.48
2023-04-10T11:52:50.261Z,12.43
2023-04-10T11:54:13.367Z,13.68
2023-04-10T11:55:37.461Z,13.57
2023-04-10T11:56:59.917Z,10.90
2023-04-10T11:58:24.216Z,13.38
2023-04-10T11:59:50.874Z,10.38
2023-04-10T12:01:11.543Z,12.68
2023-04-10T12:02:32.245Z,11.48
2023-04-10T12:03:54.697Z,14.13
2023-04-10T12:05:15.769Z,11.55
2023-04-10T12:06:36.646Z,9.80
2023-04-10T12:07:57.185Z,13.07
2023-04-10T12:09:19.206Z,10.05
2023-04-10T12:10:45.661Z,10.48
2023-04-10T12:12:07.455Z,15.05
2023-04-10T12:13:28.832Z,12.80
2023-04-10T12:14:49.453Z,10.95
2023-04-10T12:16:10.801Z,10.35
2023-04-10T12:18:54.128Z,9.70
2023-04-10T12:20:15.523Z,10.25
2023-04-10T12:22:57.242Z,10.57
2023-04-10T12:24:42.130Z,9.32
2023-04-10T12:26:13.868Z,11.70
2023-04-10T12:27:34.299Z,10.48
2023-04-10T12:28:56.819Z,9.07
2023-04-10T12:30:18.333Z,11.18
2023-04-10T12:31:39.022Z,9.60
2023-04-10T12:32:59.471Z,9.85
2023-04-10T12:34:21.535Z,10.45
2023-04-10T12:35:42.200Z,14.63
2023-04-10T12:37:03.117Z,11.55
2023-04-10T12:39:43.960Z,15.57
2023-04-10T12:41:05.745Z,11.80
2023-04-10T12:42:26.440Z,10.82
2023-04-10T12:43:47.033Z,13.88
2023-04-10T12:45:08.960Z,13.35
2023-04-10T12:46:30.101Z,16.13
2023-04-10T12:47:52.021Z,12.50
2023-04-10T12:49:14.013Z,14.82
2023-04-10T12:50:46.314Z,15.50
2023-04-10T12:52:07.832Z,14.00
2023-04-10T12:53:28.811Z,15.00
2023-04-10T12:54:50.115Z,18.98
2023-04-10T12:56:10.697Z,15.30
2023-04-10T12:57:31.713Z,18.73
2023-04-10T12:59:06.836Z,16.15
2023-04-10T13:00:27.508Z,19.33
2023-04-10T13:01:48.582Z,17.15
2023-04-10T13:03:09.894Z,17.90
2023-04-10T13:04:31.059Z,14.98
2023-04-10T13:05:53.601Z,24.83
2023-04-10T13:07:14.574Z,18.88
2023-04-10T13:08:35.192Z,15.43
2023-04-10T13:09:55.499Z,18.85
2023-04-10T13:11:16.273Z,15.70
2023-04-10T13:12:36.929Z,15.00
2023-04-10T13:13:57.640Z,15.10
2023-04-10T13:15:18.421Z,16.13
2023-04-10T13:16:39.557Z,15.32
2023-04-10T13:18:00.343Z,18.75
2023-04-10T13:19:20.968Z,15.68
2023-04-10T13:20:41.991Z,16.63
2023-04-10T13:22:04.268Z,15.45
2023-04-10T13:23:24.819Z,20.08
2023-04-10T13:24:45.605Z,21.17
2023-04-10T13:26:06.478Z,19.25
2023-04-10T13:27:27.126Z,18.98
2023-04-10T13:28:48.086Z,18.42
2023-04-10T13:30:09.721Z,16.80
2023-04-10T13:32:51.393Z,18.60
2023-04-10T13:34:12.105Z,16.65
2023-04-10T13:35:32.803Z,17.33
2023-04-10T13:36:53.403Z,20.23
2023-04-10T13:38:15.199Z,21.50
2023-04-10T13:39:35.724Z,14.93
2023-04-10T13:40:56.382Z,18.73
2023-04-10T13:42:17.243Z,22.17
2023-04-10T13:43:38.475Z,18.13
2023-04-10T13:46:20.433Z,19.65
2023-04-10T13:47:41.332Z,19.23
2023-04-10T13:49:02.012Z,17.02
2023-04-10T13:50:22.775Z,19.13
2023-04-10T13:51:43.394Z,19.07
2023-04-10T13:53:04.225Z,14.73
2023-04-10T13:54:26.706Z,18.70
2023-04-10T13:55:47.714Z,17.33
2023-04-10T13:57:08.655Z,22.20
2023-04-10T13:58:29.657Z,18.27
2023-04-10T13:59:50.538Z,19.80
2023-04-10T14:01:11.283Z,22.50
2023-04-10T14:02:32.149Z,17.60
2023-04-10T14:03:52.903Z,20.63
2023-04-10T14:05:13.758Z,17.50
2023-04-10T14:06:34.583Z,16.33
2023-04-10T14:07:55.393Z,15.20
2023-04-10T14:09:16.121Z,24.27
2023-04-10T14:10:38.145Z,17.83
2023-04-10T14:11:58.765Z,18.92
2023-04-10T14:13:19.608Z,17.40
2023-04-10T14:14:40.147Z,18.07
2023-04-10T14:16:01.236Z,19.45
2023-04-10T14:17:21.641Z,19.57
2023-04-10T14:18:42.457Z,21.88
2023-04-10T14:20:03.443Z,16.75
2023-04-10T14:21:24.137Z,15.27
2023-04-10T14:22:45.052Z,15.65
2023-04-10T14:24:05.576Z,12.65
2023-04-10T14:25:26.549Z,15.10
2023-04-10T14:26:49.099Z,15.75
2023-04-10T14:28:10.774Z,17.65
2023-04-10T14:30:55.283Z,19.27
2023-04-10T14:32:16.290Z,17.45
2023-04-10T14:33:37.355Z,19.42
2023-04-10T14:34:58.211Z,20.40
2023-04-10T14:36:19.575Z,17.15
2023-04-10T14:37:40.471Z,19.65
2023-04-10T14:39:01.471Z,17.00
2023-04-10T14:40:22.509Z,15.55
2023-04-10T14:41:43.988Z,17.55
2023-04-10T14:43:06.424Z,18.42
2023-04-10T14:44:27.464Z,19.77
2023-04-10T14:45:48.404Z,20.08
2023-04-10T14:47:09.186Z,22.23
2023-04-10T14:48:30.011Z,18.38
2023-04-10T14:49:50.750Z,18.75
2023-04-10T14:51:11.677Z,19.77
2023-04-10T14:52:32.275Z,21.77
2023-04-10T14:53:53.426Z,19.60
2023-04-10T14:55:14.424Z,27.30
2023-04-10T14:56:35.040Z,24.60
2023-04-10T14:57:58.241Z,24.23
2023-04-10T14:59:20.688Z,19.33
2023-04-10T15:00:41.876Z,16.15
2023-04-10T15:02:02.489Z,22.02
2023-04-10T15:03:25.226Z,20.27
2023-04-10T15:04:46.721Z,23.05
2023-04-10T15:06:08.456Z,20.90
2023-04-10T15:07:29.197Z,22.33
2023-04-10T15:08:49.931Z,22.10
2023-04-10T15:10:10.964Z,22.40
2023-04-10T15:11:31.973Z,24.80
2023-04-10T15:12:52.906Z,24.60
2023-04-10T15:14:14.539Z,22.35
2023-04-10T15:15:36.461Z,22.60
2023-04-10T15:16:57.515Z,33.30
2023-04-10T15:18:19.717Z,29.60
2023-04-10T15:19:40.326Z,29.63
2023-04-10T15:21:01.108Z,26.40
2023-04-10T15:22:22.262Z,33.63
2023-04-10T15:23:43.786Z,30.90
2023-04-10T15:25:05.023Z,33.50
2023-04-10T15:26:25.552Z,29.48
2023-04-10T15:27:46.417Z,29.90
2023-04-10T15:29:07.040Z,30.50
2023-04-10T15:30:27.879Z,24.45
2023-04-10T15:31:49.730Z,30.30
2023-04-10T15:33:10.433Z,32.85
2023-04-10T15:34:36.965Z,37.85
2023-04-10T15:35:57.678Z,27.17
2023-04-10T15:37:18.363Z,30.08
2023-04-10T15:38:41.109Z,38.30
2023-04-10T15:40:07.927Z,25.27
2023-04-10T15:41:28.232Z,32.10
2023-04-10T15:42:49.378Z,31.70
2023-04-10T15:44:10.299Z,29.52
2023-04-10T15:45:30.865Z,30.90
2023-04-10T15:46:52.881Z,37.95
2023-04-10T15:48:13.398Z,30.40
2023-04-10T15:49:38.190Z,28.67
2023-04-10T15:50:59.502Z,35.00
2023-04-10T15:52:19.916Z,29.00
2023-04-10T15:53:40.630Z,26.00
2023-04-10T15:55:01.588Z,26.10
2023-04-10T15:56:22.434Z,26.10
2023-04-10T15:57:43.053Z,35.03
2023-04-10T15:59:03.983Z,34.08
2023-04-10T16:00:24.832Z,27.42
2023-04-10T16:01:45.341Z,28.92
2023-04-10T16:03:07.649Z,23.00
2023-04-10T16:04:28.318Z,28.23
2023-04-10T16:05:48.887Z,35.20
2023-04-10T16:07:09.839Z,26.23
2023-04-10T16:08:30.276Z,30.37
2023-04-10T16:09:53.820Z,30.20
2023-04-10T16:11:14.444Z,23.73
2023-04-10T16:12:35.434Z,25.75
2023-04-10T16:13:56.220Z,18.88
2023-04-10T16:15:17.278Z,34.30
2023-04-10T16:16:37.485Z,21.00
2023-04-10T16:17:58.413Z,21.52
2023-04-10T16:19:21.178Z,22.73
2023-04-10T16:20:41.857Z,21.50
2023-04-10T16:22:02.386Z,24.85
2023-04-10T16:23:23.016Z,18.25
2023-04-10T16:24:43.692Z,22.33
2023-04-10T16:26:04.633Z,20.33
2023-04-10T16:27:25.220Z,23.63
2023-04-10T16:28:45.889Z,21.33
2023-04-10T16:30:08.033Z,26.23
2023-04-10T16:31:29.360Z,23.83
2023-04-10T16:32:50.952Z,21.30
2023-04-10T16:34:11.738Z,20.75
2023-04-10T16:35:33.669Z,26.27
2023-04-10T16:36:54.503Z,30.08
2023-04-10T16:38:15.174Z,24.45
2023-04-10T16:39:40.622Z,25.17
2023-04-10T16:41:02.155Z,23.40
2023-04-10T16:42:23.027Z,25.55
2023-04-10T16:43:43.776Z,23.08
2023-04-10T16:45:05.069Z,25.00
2023-04-10T16:46:25.553Z,20.10
2023-04-10T16:47:46.406Z,17.40
2023-04-10T16:49:06.950Z,21.50
2023-04-10T16:50:27.911Z,22.80
2023-04-10T16:51:48.528Z,23.67
2023-04-10T16:53:12.040Z,26.00
2023-04-10T16:54:32.867Z,22.15
2023-04-10T16:55:58.294Z,22.13
2023-04-10T16:57:19.053Z,20.83
2023-04-10T16:58:39.497Z,21.73
2023-04-10T17:00:03.901Z,20.33
2023-04-10T17:01:24.516Z,24.50
2023-04-10T17:02:45.255Z,23.45
2023-04-10T17:04:06.424Z,25.25
2023-04-10T17:05:26.754Z,24.73
2023-04-10T17:06:47.290Z,21.95
2023-04-10T17:08:07.884Z,33.13
2023-04-10T17:09:34.976Z,31.05
2023-04-10T17:10:59.587Z,24.67
2023-04-10T17:12:20.426Z,32.60
2023-04-10T17:13:41.367Z,27.58
2023-04-10T17:15:01.807Z,27.42
2023-04-10T17:16:22.325Z,26.10
2023-04-10T17:17:42.733Z,28.58
2023-04-10T17:19:03.436Z,27.95
2023-04-10T17:20:35.653Z,20.30
2023-04-10T17:21:58.726Z,23.13
2023-04-10T17:23:19.477Z,26.85
2023-04-10T17:24:40.028Z,21.27
2023-04-10T17:26:02.584Z,23.33
2023-04-10T17:27:23.273Z,27.35
2023-04-10T17:28:44.321Z,26.48
2023-04-10T17:30:06.073Z,17.58
2023-04-10T17:31:27.004Z,17.73
2023-04-10T17:32:52.888Z,18.17
2023-04-10T17:34:13.605Z,21.42
2023-04-10T17:35:33.870Z,20.00
2023-04-10T17:36:54.773Z,21.55
2023-04-10T17:38:15.001Z,15.05
2023-04-10T17:39:35.906Z,17.73
2023-04-10T17:40:56.662Z,22.00
2023-04-10T17:42:18.546Z,21.90
2023-04-10T17:43:39.367Z,18.08
2023-04-10T17:45:03.221Z,17.75
2023-04-10T17:46:23.718Z,17.05
2023-04-10T17:47:49.742Z,18.33
2023-04-10T17:49:12.600Z,17.02
2023-04-10T17:50:36.132Z,18.20
2023-04-10T17:51:56.911Z,16.58
2023-04-10T17:53:22.251Z,16.60
2023-04-10T17:54:42.697Z,13.95
2023-04-10T17:56:06.082Z,14.73